My Eden — V7YF8 — position and weather

sailwx.info

Track history (hours):
 
Tides and Currents Weather Stations Pressure Air Temp Water Temp Dewpoint Dewpoint Depression Visibility Wind Speed Wind Dir Waves Ship Positions

My Eden

Last reported at 2017-Oct-16 14:01 UTC. Time now 2017-Oct-18 06:05 UTC.
Position N 37°56' E 023°39'.

Length 45 m; draft 3 m.

Type: Pleasure craft. MMSI: 538071193.

Date/timePositionNaut miles runAvg speedWind from/ knotsBaromVisibWave heightAir tempDewpointWater temp
2017-Oct-16 14:01N 37°56' E 023°39'0 0.0
2017-Oct-16 13:30N 37°56' E 023°39'2 4.3
2017-Oct-16 13:01N 37°54' E 023°40'5 9.8
2017-Oct-16 12:30N 37°50' E 023°44'51 8.6
2017-Oct-16 06:35N 37°32' E 024°44'1 9.4
2017-Oct-16 06:30N 37°31' E 024°44'5 9.5
2017-Oct-16 06:00N 37°27' E 024°48'5 9.5
2017-Oct-16 05:30N 37°23' E 024°51'4 8.5
2017-Oct-16 05:01N 37°22' E 024°56'5 9.9
2017-Oct-16 04:30N 37°23' E 025°02'510.0
2017-Oct-16 04:00N 37°25' E 025°07'4 7.9
2017-Oct-16 03:31N 37°23' E 025°12'4 7.9
2017-Oct-16 03:00N 37°22' E 025°16'5 9.9
2017-Oct-16 02:30N 37°24' E 025°22'5 9.9
2017-Oct-16 02:00N 37°23' E 025°28'510.1
2017-Oct-16 01:30N 37°24' E 025°35'510.2
2017-Oct-16 01:01N 37°27' E 025°40'6 9.6
2017-Oct-16 00:22N 37°31' E 025°46'3 9.3
2017-Oct-16 00:00N 37°33' E 025°49'4 8.2
2017-Oct-15 23:31N 37°31' E 025°54'  
Track history (hours):
 
Tides and Currents Weather Stations Pressure Air Temp Water Temp Dewpoint Dewpoint Depression Visibility Wind Speed Wind Dir Waves Ship Positions

My Eden

Last reported at 2017-Oct-16 14:01 UTC. Time now 2017-Oct-18 06:05 UTC.
Position N 37°56' E 023°39'.

Length 45 m; draft 3 m.

Type: Pleasure craft. MMSI: 538071193.

Date/timePositionNaut miles runAvg speedWind from/ knotsBaromVisibWave heightAir tempDewpointWater temp
2017-Oct-16 14:01N 37°56' E 023°39'0 0.0
2017-Oct-16 13:30N 37°56' E 023°39'2 4.3
2017-Oct-16 13:01N 37°54' E 023°40'5 9.8
2017-Oct-16 12:30N 37°50' E 023°44'51 8.6
2017-Oct-16 06:35N 37°32' E 024°44'1 9.4
2017-Oct-16 06:30N 37°31' E 024°44'5 9.5
2017-Oct-16 06:00N 37°27' E 024°48'5 9.5
2017-Oct-16 05:30N 37°23' E 024°51'4 8.5
2017-Oct-16 05:01N 37°22' E 024°56'5 9.9
2017-Oct-16 04:30N 37°23' E 025°02'510.0
2017-Oct-16 04:00N 37°25' E 025°07'4 7.9
2017-Oct-16 03:31N 37°23' E 025°12'4 7.9
2017-Oct-16 03:00N 37°22' E 025°16'5 9.9
2017-Oct-16 02:30N 37°24' E 025°22'5 9.9
2017-Oct-16 02:00N 37°23' E 025°28'510.1
2017-Oct-16 01:30N 37°24' E 025°35'510.2
2017-Oct-16 01:01N 37°27' E 025°40'6 9.6
2017-Oct-16 00:22N 37°31' E 025°46'3 9.3
2017-Oct-16 00:00N 37°33' E 025°49'4 8.2
2017-Oct-15 23:31N 37°31' E 025°54'  

Dump ship's entire track history